INFORMACIÓN METAR y TAF
METAR FOR LTBS
ADDS - METARS form results

(0239 UTC 25 June 2022)
Data provider http://aviationweather.gov/metar/data/
 
METAR text: LTBS 250220Z 35013KT CAVOK 25/10 Q1009 NOSIG RMK RWY19 35010KT SKC
Conditions at: LTBS (DALAMAN (COMMUNE, TR) observed 0220 UTC 25 June 2022
Temperature: 25.0°C (77°F)
Dewpoint: 10.0°C (50°F) [RH = 39%]
Pressure (altimeter): 29.79 inches Hg (1009.0 mb)
Winds: from the N (350 degrees) at 15 MPH (13 knots; 6.7 m/s)
Visibility: 6 or more miles (10+ km)
Ceiling: ceiling and visibility are OK
Clouds: unknown
Weather: no significant weather observed at this time

METAR text: LTBS 250150Z 35010KT CAVOK 24/10 Q1008 NOSIG RMK RWY19 35009KT SKC
Conditions at: LTBS (DALAMAN (COMMUNE, TR) observed 0150 UTC 25 June 2022
Temperature: 24.0°C (75°F)
Dewpoint: 10.0°C (50°F) [RH = 41%]
Pressure (altimeter): 29.76 inches Hg (1008.0 mb)
Winds: from the N (350 degrees) at 12 MPH (10 knots; 5.1 m/s)
Visibility: 6 or more miles (10+ km)
Ceiling: ceiling and visibility are OK
Clouds: unknown
Weather: no significant weather observed at this time

Forecast for: LTBS (DALAMAN (COMMUNE, TR)
Text: TAF LTBS 242240Z 2500/2524 01017KT CAVOK
Forecast period: 0000 to 0600 UTC 25 June 2022
Forecast type: FROM: standard forecast or significant change
Winds: from the N (10 degrees) at 20 MPH (17 knots; 8.7 m/s)
Visibility: 6 or more miles (10+ km)
Ceiling: unknown
Clouds: missing
Weather: NSW  (no significant weather)
Text: BECMG 2506/2508 FEW030
Forecast period: 0600 to 1600 UTC 25 June 2022
Forecast type: BECOMING: Conditions expected to become as follows by 0800 UTC 25 June 2022
Winds: from the N (10 degrees) at 20 MPH (17 knots; 8.7 m/s)
Visibility: 6 or more miles (10+ km)
Ceiling: at least 12,000 feet AGL
Clouds: few clouds at 3000 feet AGL
Weather: NSW  (no significant weather)
Text: BECMG 2516/2518 CAVOK
Forecast period: 1600 UTC 25 June 2022 to 0000 UTC 26 June 2022
Forecast type: BECOMING: Conditions expected to become as follows by 1800 UTC 25 June 2022
Winds: from the N (10 degrees) at 20 MPH (17 knots; 8.7 m/s)
Visibility: 6 or more miles (10+ km)
Ceiling: unknown
Clouds: missing
Weather: NSW  (no significant weather)

 MAPA DE AEROPUERTO

 INFORMACIÓN DE PISTA